Time;durP1;ratioP1;P1;durP2;ratioP2;P2;SDS_P1;SDS_P2;PMS_P1;PMS_P2;Temp;Humidity;BMP_temperature;BMP_pressure;BME280_temperature;BME280_humidity;BME280_pressure;Samples;Min_cycle;Max_cycle;Signal;HPM_P1;HPM_P2
2023/08/07 00:02:08;;;;;;;9.13;2.50;;;;;;;;;;5025976;28;20033;-68
2023/08/07 00:04:34;;;;;;;5.90;2.63;;;;;;;;;;5025888;28;20487;-67
2023/08/07 00:07:00;;;;;;;6.22;2.20;;;;;;;;;;5042428;28;21548;-67
2023/08/07 00:09:26;;;;;;;6.68;2.58;;;;;;;;;;5043970;28;20570;-64
2023/08/07 00:11:52;;;;;;;9.95;3.17;;;;;;;;;;5044082;28;20032;-64
2023/08/07 00:14:18;;;;;;;5.55;2.40;;;;;;;;;;5043882;28;20112;-64
2023/08/07 00:16:45;;;;;;;7.03;2.40;;;;;;;;;;5045773;28;20051;-63
2023/08/07 00:19:11;;;;;;;4.57;2.30;;;;;;;;;;5043610;28;20032;-64
2023/08/07 00:21:38;;;;;;;4.65;2.05;;;;;;;;;;5043680;28;20144;-64
2023/08/07 00:24:05;;;;;;;6.63;2.90;;;;;;;;;;5043554;28;20552;-64
2023/08/07 00:26:32;;;;;;;6.90;2.30;;;;;;;;;;5043115;28;20036;-64
2023/08/07 00:28:58;;;;;;;4.80;2.15;;;;;;;;;;5044121;28;20112;-64
2023/08/07 00:31:24;;;;;;;8.38;2.58;;;;;;;;;;5042758;28;20043;-64
2023/08/07 00:33:53;;;;;;;3.78;1.98;;;;;;;;;;5044011;28;20041;-64
2023/08/07 00:36:20;;;;;;;5.03;2.20;;;;;;;;;;5043601;28;20039;-64
2023/08/07 00:38:46;;;;;;;6.47;2.22;;;;;;;;;;5042769;28;20476;-64
2023/08/07 00:41:12;;;;;;;6.13;2.20;;;;;;;;;;5042711;28;20039;-64
2023/08/07 00:43:38;;;;;;;5.90;2.00;;;;;;;;;;5043224;28;20047;-64
2023/08/07 00:46:07;;;;;;;7.70;2.13;;;;;;;;;;5044525;28;20078;-64
2023/08/07 00:48:33;;;;;;;4.95;2.05;;;;;;;;;;5043088;28;20085;-64
2023/08/07 00:50:59;;;;;;;4.90;1.83;;;;;;;;;;5043160;28;20056;-64
2023/08/07 00:53:26;;;;;;;4.72;1.85;;;;;;;;;;5042491;28;21366;-64
2023/08/07 00:55:52;;;;;;;3.65;1.88;;;;;;;;;;5041984;28;20036;-64
2023/08/07 00:58:19;;;;;;;8.95;2.15;;;;;;;;;;5041450;28;20029;-64
2023/08/07 01:00:45;;;;;;;6.38;2.30;;;;;;;;;;5043232;28;20024;-63
2023/08/07 01:03:14;;;;;;;3.50;1.85;;;;;;;;;;5041452;28;20753;-63
2023/08/07 01:05:40;;;;;;;4.88;1.85;;;;;;;;;;5042822;28;20167;-64
2023/08/07 01:08:06;;;;;;;4.93;2.05;;;;;;;;;;5040553;28;20032;-64
2023/08/07 01:10:41;;;;;;;3.35;1.95;;;;;;;;;;5042394;28;20039;-64
2023/08/07 01:13:20;;;;;;;6.30;2.33;;;;;;;;;;5041531;28;20067;-64
2023/08/07 01:15:48;;;;;;;5.13;1.85;;;;;;;;;;5042638;28;20735;-64
2023/08/07 01:18:14;;;;;;;6.03;2.58;;;;;;;;;;5042049;28;20043;-63
2023/08/07 01:20:40;;;;;;;7.35;2.53;;;;;;;;;;5041433;28;20039;-64
2023/08/07 01:23:06;;;;;;;5.65;2.17;;;;;;;;;;5041103;28;20102;-64
2023/08/07 01:25:32;;;;;;;5.70;2.30;;;;;;;;;;5043153;28;20069;-64
2023/08/07 01:28:15;;;;;;;3.65;1.70;;;;;;;;;;5040420;28;20032;-64
2023/08/07 01:30:43;;;;;;;8.48;2.53;;;;;;;;;;5040563;28;20576;-64
2023/08/07 01:33:44;;;;;;;5.07;1.83;;;;;;;;;;5039769;28;20031;-64
2023/08/07 01:36:11;;;;;;;5.78;2.13;;;;;;;;;;4970722;28;20042;-63
2023/08/07 01:38:38;;;;;;;4.32;2.00;;;;;;;;;;5026115;28;20078;-64
2023/08/07 01:41:04;;;;;;;5.40;2.40;;;;;;;;;;5040910;28;20032;-64
2023/08/07 01:43:32;;;;;;;5.75;1.90;;;;;;;;;;5041558;28;20041;-64
2023/08/07 01:45:58;;;;;;;4.53;2.10;;;;;;;;;;5041688;28;20040;-64
2023/08/07 01:48:27;;;;;;;5.30;1.65;;;;;;;;;;5040949;28;20031;-64
2023/08/07 01:50:54;;;;;;;7.28;1.90;;;;;;;;;;5042836;28;20101;-64
2023/08/07 01:53:21;;;;;;;4.88;1.77;;;;;;;;;;5042431;28;20059;-67
2023/08/07 01:55:47;;;;;;;7.68;1.80;;;;;;;;;;5041862;28;20028;-67
2023/08/07 01:58:13;;;;;;;5.82;1.58;;;;;;;;;;5041245;28;20028;-68
2023/08/07 02:00:39;;;;;;;7.30;1.90;;;;;;;;;;5041663;28;20033;-67
2023/08/07 02:03:05;;;;;;;7.03;1.65;;;;;;;;;;5023727;28;20147;-67
2023/08/07 02:05:31;;;;;;;6.03;2.00;;;;;;;;;;5042855;28;20124;-67
2023/08/07 02:07:57;;;;;;;7.75;2.30;;;;;;;;;;5023147;28;20040;-67
2023/08/07 02:10:23;;;;;;;9.20;2.42;;;;;;;;;;5042902;28;20032;-68
2023/08/07 02:12:49;;;;;;;7.00;1.45;;;;;;;;;;5041478;28;20123;-67
2023/08/07 02:15:16;;;;;;;9.20;2.03;;;;;;;;;;5024270;28;20060;-67
2023/08/07 02:17:42;;;;;;;7.18;1.70;;;;;;;;;;5040672;28;20037;-67
2023/08/07 02:20:08;;;;;;;10.20;2.40;;;;;;;;;;5041305;28;20041;-68
2023/08/07 02:22:34;;;;;;;9.35;2.20;;;;;;;;;;5042225;28;20025;-67
2023/08/07 02:25:01;;;;;;;9.93;2.08;;;;;;;;;;5041603;28;20105;-68
2023/08/07 02:27:27;;;;;;;7.07;2.03;;;;;;;;;;5040555;28;20603;-67
2023/08/07 02:29:53;;;;;;;8.38;2.00;;;;;;;;;;5042061;28;20082;-67
2023/08/07 02:32:20;;;;;;;9.75;2.40;;;;;;;;;;5040663;28;21927;-67
2023/08/07 02:34:46;;;;;;;9.38;2.65;;;;;;;;;;5041696;28;20155;-67
2023/08/07 02:37:12;;;;;;;5.50;1.70;;;;;;;;;;5039507;28;20039;-68
2023/08/07 02:39:38;;;;;;;12.00;2.33;;;;;;;;;;5041907;28;20024;-67
2023/08/07 02:42:04;;;;;;;13.05;2.70;;;;;;;;;;5041479;28;20491;-68
2023/08/07 02:44:30;;;;;;;10.18;2.45;;;;;;;;;;5042569;28;21297;-67
2023/08/07 02:46:56;;;;;;;16.52;2.92;;;;;;;;;;5041096;28;20043;-67
2023/08/07 02:49:22;;;;;;;9.00;2.35;;;;;;;;;;5042255;28;20037;-67
2023/08/07 02:51:49;;;;;;;10.30;3.28;;;;;;;;;;5042494;28;20036;-68
2023/08/07 02:54:15;;;;;;;10.40;2.25;;;;;;;;;;5042202;28;20116;-68
2023/08/07 02:56:41;;;;;;;10.15;2.30;;;;;;;;;;5041032;28;20029;-68
2023/08/07 02:59:07;;;;;;;7.72;2.35;;;;;;;;;;5042730;28;20111;-68
2023/08/07 03:01:34;;;;;;;7.50;1.85;;;;;;;;;;5045962;28;20613;-68
2023/08/07 03:04:00;;;;;;;11.55;2.45;;;;;;;;;;5044560;28;20037;-68
2023/08/07 03:06:26;;;;;;;9.60;2.22;;;;;;;;;;5044891;28;20041;-68
2023/08/07 03:08:52;;;;;;;7.53;2.13;;;;;;;;;;5044632;28;20032;-67
2023/08/07 03:11:18;;;;;;;8.55;2.55;;;;;;;;;;5046121;28;20044;-68
2023/08/07 03:13:44;;;;;;;7.70;2.30;;;;;;;;;;5045259;28;20036;-68
2023/08/07 03:16:10;;;;;;;8.68;2.33;;;;;;;;;;5044434;28;20048;-69
2023/08/07 03:18:36;;;;;;;6.50;2.20;;;;;;;;;;5044228;28;20032;-68
2023/08/07 03:21:02;;;;;;;9.65;2.78;;;;;;;;;;5045693;28;20035;-68
2023/08/07 03:23:29;;;;;;;7.65;1.95;;;;;;;;;;5044507;28;20047;-68
2023/08/07 03:26:08;;;;;;;6.22;2.05;;;;;;;;;;5045336;28;20541;-68
2023/08/07 03:28:34;;;;;;;7.20;2.20;;;;;;;;;;5044108;28;20048;-67
2023/08/07 03:31:01;;;;;;;7.60;1.75;;;;;;;;;;5046048;28;20032;-68
2023/08/07 03:33:27;;;;;;;7.65;1.95;;;;;;;;;;5044759;28;20037;-68
2023/08/07 03:35:53;;;;;;;6.43;1.83;;;;;;;;;;5025995;28;20032;-68
2023/08/07 03:38:19;;;;;;;8.32;1.73;;;;;;;;;;5044474;28;20447;-68
2023/08/07 03:40:46;;;;;;;5.57;1.70;;;;;;;;;;5045001;28;20040;-68
2023/08/07 03:43:12;;;;;;;6.97;2.20;;;;;;;;;;5044323;28;20106;-68
2023/08/07 03:45:38;;;;;;;6.03;1.92;;;;;;;;;;5044486;28;20032;-69
2023/08/07 03:48:05;;;;;;;8.00;2.42;;;;;;;;;;5044170;28;20040;-68
2023/08/07 03:50:34;;;;;;;9.50;2.22;;;;;;;;;;5043744;28;20090;-68
2023/08/07 03:53:00;;;;;;;8.32;2.17;;;;;;;;;;5044648;28;20752;-68
2023/08/07 03:55:26;;;;;;;10.20;2.75;;;;;;;;;;5043293;28;20697;-68
2023/08/07 03:57:52;;;;;;;10.18;2.63;;;;;;;;;;5043666;28;20942;-68
2023/08/07 04:00:18;;;;;;;10.45;2.42;;;;;;;;;;5043974;28;21214;-68
2023/08/07 04:02:44;;;;;;;11.68;3.00;;;;;;;;;;5043897;28;20056;-68
2023/08/07 04:05:11;;;;;;;11.85;3.17;;;;;;;;;;5043792;28;20059;-67
2023/08/07 04:07:37;;;;;;;14.68;2.60;;;;;;;;;;5044292;28;20040;-68
2023/08/07 04:10:03;;;;;;;14.38;3.72;;;;;;;;;;5042593;28;20040;-69
2023/08/07 04:12:29;;;;;;;9.65;2.75;;;;;;;;;;5043092;28;20029;-68
2023/08/07 04:14:58;;;;;;;8.40;3.05;;;;;;;;;;5044257;28;20102;-68
2023/08/07 04:17:24;;;;;;;8.95;2.65;;;;;;;;;;5043305;28;20028;-68
2023/08/07 04:19:51;;;;;;;10.00;2.78;;;;;;;;;;5043556;28;20044;-68
2023/08/07 04:22:17;;;;;;;11.77;2.90;;;;;;;;;;5042226;28;21981;-68
2023/08/07 04:24:46;;;;;;;11.13;2.75;;;;;;;;;;5044133;28;21072;-68
2023/08/07 04:27:12;;;;;;;10.90;3.42;;;;;;;;;;5024138;28;20392;-68
2023/08/07 04:29:38;;;;;;;14.82;2.97;;;;;;;;;;5043223;28;20029;-68
2023/08/07 04:32:05;;;;;;;11.57;2.55;;;;;;;;;;5041370;28;21779;-68
2023/08/07 04:34:31;;;;;;;19.10;3.53;;;;;;;;;;5043879;28;20040;-68
2023/08/07 04:36:57;;;;;;;11.00;2.78;;;;;;;;;;5041329;28;20028;-68
2023/08/07 04:39:23;;;;;;;8.95;2.72;;;;;;;;;;5042256;28;20043;-68
2023/08/07 04:41:50;;;;;;;22.45;3.85;;;;;;;;;;5043437;28;20165;-69
2023/08/07 04:44:16;;;;;;;18.77;3.95;;;;;;;;;;5044717;28;20039;-68
2023/08/07 04:46:42;;;;;;;16.23;4.05;;;;;;;;;;5044031;28;21322;-68
2023/08/07 04:49:08;;;;;;;11.85;2.92;;;;;;;;;;5042272;28;21489;-68
2023/08/07 04:51:34;;;;;;;12.98;3.28;;;;;;;;;;5044365;28;20166;-69
2023/08/07 04:54:00;;;;;;;12.40;3.38;;;;;;;;;;5044500;28;21012;-69
2023/08/07 04:56:27;;;;;;;13.40;3.10;;;;;;;;;;5044564;28;20033;-69
2023/08/07 04:58:53;;;;;;;10.38;2.80;;;;;;;;;;5043935;28;20572;-68
2023/08/07 05:01:19;;;;;;;9.98;2.85;;;;;;;;;;5043869;28;20043;-69
2023/08/07 05:03:45;;;;;;;16.23;4.32;;;;;;;;;;5044521;28;20024;-69
2023/08/07 05:06:11;;;;;;;11.70;3.38;;;;;;;;;;5042936;28;20053;-68
2023/08/07 05:08:37;;;;;;;12.05;3.50;;;;;;;;;;5042445;28;20044;-69
2023/08/07 05:11:03;;;;;;;15.00;3.55;;;;;;;;;;5043669;28;20062;-69
2023/08/07 05:13:29;;;;;;;15.20;3.10;;;;;;;;;;5026067;28;20586;-69
2023/08/07 05:15:55;;;;;;;10.98;3.13;;;;;;;;;;5043821;28;20415;-68
2023/08/07 05:18:21;;;;;;;14.73;3.60;;;;;;;;;;5042822;28;20141;-69
2023/08/07 05:20:47;;;;;;;13.88;3.88;;;;;;;;;;5043627;28;20036;-69
2023/08/07 05:23:13;;;;;;;22.60;4.30;;;;;;;;;;5043464;28;20043;-69
2023/08/07 05:25:39;;;;;;;20.17;4.22;;;;;;;;;;5043385;28;20028;-68
2023/08/07 05:28:05;;;;;;;17.98;3.53;;;;;;;;;;5042457;28;20037;-68
2023/08/07 05:30:32;;;;;;;22.05;4.75;;;;;;;;;;5042064;28;20990;-68
2023/08/07 05:32:58;;;;;;;14.63;3.88;;;;;;;;;;5043383;28;20050;-68
2023/08/07 05:35:24;;;;;;;20.80;4.38;;;;;;;;;;5029316;28;21653;-68
2023/08/07 05:37:50;;;;;;;15.95;3.95;;;;;;;;;;5044392;28;20048;-68
2023/08/07 05:40:16;;;;;;;17.50;4.18;;;;;;;;;;5041866;28;20063;-68
2023/08/07 05:42:42;;;;;;;14.95;2.95;;;;;;;;;;5043000;28;20025;-68
2023/08/07 05:45:10;;;;;;;12.80;3.38;;;;;;;;;;5043064;28;20454;-68
2023/08/07 05:47:36;;;;;;;15.77;3.95;;;;;;;;;;5043713;28;20130;-68
2023/08/07 05:50:03;;;;;;;13.10;3.70;;;;;;;;;;5042800;28;20085;-68
2023/08/07 05:52:29;;;;;;;16.05;3.83;;;;;;;;;;5043726;28;20137;-69
2023/08/07 05:54:55;;;;;;;8.35;2.47;;;;;;;;;;5043230;28;20041;-68
2023/08/07 05:57:21;;;;;;;13.18;2.80;;;;;;;;;;5042786;28;20056;-68
2023/08/07 05:59:47;;;;;;;14.57;3.67;;;;;;;;;;5042033;28;20079;-68
2023/08/07 06:02:13;;;;;;;14.80;3.05;;;;;;;;;;5043872;28;20349;-68
2023/08/07 06:04:40;;;;;;;12.90;3.05;;;;;;;;;;5044727;28;20024;-68
2023/08/07 06:07:07;;;;;;;12.25;3.78;;;;;;;;;;5043048;28;20023;-68
2023/08/07 06:09:33;;;;;;;15.07;3.83;;;;;;;;;;5041424;28;20033;-68
2023/08/07 06:11:59;;;;;;;9.93;2.95;;;;;;;;;;5023654;28;20040;-68
2023/08/07 06:14:25;;;;;;;14.45;3.83;;;;;;;;;;5042486;28;20154;-68
2023/08/07 06:16:52;;;;;;;14.38;3.85;;;;;;;;;;5043959;28;20898;-68
2023/08/07 06:19:18;;;;;;;14.23;3.40;;;;;;;;;;5020874;28;20043;-68
2023/08/07 06:21:44;;;;;;;12.27;3.80;;;;;;;;;;5039904;28;20059;-68
2023/08/07 06:24:12;;;;;;;18.98;3.40;;;;;;;;;;5040666;28;20025;-68
2023/08/07 06:26:38;;;;;;;14.27;2.85;;;;;;;;;;5042058;28;20167;-68
2023/08/07 06:29:04;;;;;;;10.40;2.80;;;;;;;;;;5041976;28;20111;-68
2023/08/07 06:31:30;;;;;;;13.02;2.63;;;;;;;;;;5041665;28;20102;-68
2023/08/07 06:33:56;;;;;;;10.18;2.30;;;;;;;;;;5043129;28;20037;-68
2023/08/07 06:36:22;;;;;;;12.77;3.10;;;;;;;;;;5044931;28;20048;-68
2023/08/07 06:38:48;;;;;;;12.25;2.67;;;;;;;;;;5044058;28;20083;-68
2023/08/07 06:41:14;;;;;;;10.88;2.70;;;;;;;;;;5025922;28;20530;-68
2023/08/07 06:43:41;;;;;;;10.55;2.88;;;;;;;;;;5045806;28;20364;-68
2023/08/07 06:46:07;;;;;;;10.27;2.65;;;;;;;;;;5045447;28;20029;-68
2023/08/07 06:48:33;;;;;;;16.75;3.95;;;;;;;;;;5044762;28;20775;-68
2023/08/07 06:50:59;;;;;;;9.13;2.35;;;;;;;;;;5045736;28;20043;-68
2023/08/07 06:53:26;;;;;;;15.07;3.80;;;;;;;;;;5045352;28;20031;-67
2023/08/07 06:55:52;;;;;;;11.27;2.50;;;;;;;;;;5045725;28;20111;-67
2023/08/07 06:58:18;;;;;;;8.85;2.50;;;;;;;;;;5045628;28;20057;-67
2023/08/07 07:00:44;;;;;;;9.27;2.72;;;;;;;;;;5043650;28;20037;-67
2023/08/07 07:03:10;;;;;;;9.13;2.55;;;;;;;;;;5043596;28;20329;-67
2023/08/07 07:05:36;;;;;;;10.65;2.42;;;;;;;;;;5049886;28;20040;-68
2023/08/07 07:08:02;;;;;;;11.95;3.13;;;;;;;;;;5052286;28;20043;-67
2023/08/07 07:10:28;;;;;;;11.40;2.70;;;;;;;;;;5051686;28;20036;-68
2023/08/07 07:12:55;;;;;;;11.52;2.63;;;;;;;;;;5053180;28;20031;-68
2023/08/07 07:15:21;;;;;;;10.05;2.47;;;;;;;;;;5053530;28;20107;-68
2023/08/07 07:17:47;;;;;;;10.70;2.25;;;;;;;;;;5051288;28;20082;-69
2023/08/07 07:20:13;;;;;;;11.70;2.30;;;;;;;;;;5053181;28;20033;-67
2023/08/07 07:22:39;;;;;;;9.98;2.40;;;;;;;;;;5053348;28;20038;-68
2023/08/07 07:25:06;;;;;;;12.93;2.78;;;;;;;;;;5052875;28;21097;-68
2023/08/07 07:27:32;;;;;;;10.75;2.80;;;;;;;;;;5052690;28;20563;-68
2023/08/07 07:29:58;;;;;;;13.98;2.92;;;;;;;;;;5038627;28;20512;-68
2023/08/07 07:32:25;;;;;;;16.33;3.17;;;;;;;;;;5051708;28;21360;-68
2023/08/07 07:34:52;;;;;;;17.92;3.53;;;;;;;;;;5051147;28;20041;-67
2023/08/07 07:37:18;;;;;;;18.42;3.05;;;;;;;;;;5049675;28;20032;-68
2023/08/07 07:39:44;;;;;;;16.42;4.15;;;;;;;;;;5052688;28;20032;-68
2023/08/07 07:42:10;;;;;;;11.65;2.90;;;;;;;;;;5052241;28;20019;-68
2023/08/07 07:44:36;;;;;;;12.57;3.00;;;;;;;;;;5052131;28;20508;-68
2023/08/07 07:47:02;;;;;;;15.00;3.65;;;;;;;;;;5049867;28;20037;-68
2023/08/07 07:49:28;;;;;;;10.95;3.08;;;;;;;;;;5052066;28;20033;-67
2023/08/07 07:51:54;;;;;;;12.80;3.67;;;;;;;;;;5050973;28;20087;-67
2023/08/07 07:54:21;;;;;;;11.73;2.97;;;;;;;;;;5051695;28;20040;-67
2023/08/07 07:56:47;;;;;;;10.25;3.33;;;;;;;;;;5051708;28;20035;-69
2023/08/07 07:59:13;;;;;;;11.95;3.55;;;;;;;;;;5051837;28;20044;-68
2023/08/07 08:01:39;;;;;;;9.32;2.60;;;;;;;;;;5051569;28;20032;-69
2023/08/07 08:04:06;;;;;;;11.55;2.80;;;;;;;;;;5052598;28;20188;-69
2023/08/07 08:06:32;;;;;;;8.60;2.33;;;;;;;;;;5051718;28;20053;-68
2023/08/07 08:09:03;;;;;;;11.05;3.10;;;;;;;;;;5052466;28;20072;-69
2023/08/07 08:11:30;;;;;;;9.25;2.88;;;;;;;;;;5051870;28;20145;-69
2023/08/07 08:13:56;;;;;;;10.68;3.25;;;;;;;;;;5052023;28;20040;-69
2023/08/07 08:16:22;;;;;;;10.68;3.40;;;;;;;;;;5050258;28;20043;-69
2023/08/07 08:18:48;;;;;;;14.48;3.75;;;;;;;;;;5051171;28;20114;-69
2023/08/07 08:21:14;;;;;;;11.57;3.30;;;;;;;;;;5051927;28;20083;-69
2023/08/07 08:23:40;;;;;;;12.43;2.95;;;;;;;;;;5052410;28;20118;-69
2023/08/07 08:26:06;;;;;;;12.48;3.65;;;;;;;;;;5052041;28;20025;-68
2023/08/07 08:28:32;;;;;;;13.18;3.33;;;;;;;;;;5051530;28;20048;-68
2023/08/07 08:30:58;;;;;;;13.65;3.20;;;;;;;;;;5052650;28;20060;-68
2023/08/07 08:33:24;;;;;;;11.95;3.08;;;;;;;;;;5051807;28;20119;-67
2023/08/07 08:35:50;;;;;;;14.15;3.53;;;;;;;;;;5032080;28;20028;-68
2023/08/07 08:38:17;;;;;;;13.60;3.85;;;;;;;;;;5049566;28;20507;-68
2023/08/07 08:40:44;;;;;;;12.90;2.53;;;;;;;;;;5050639;28;20177;-68
2023/08/07 08:43:12;;;;;;;9.93;2.92;;;;;;;;;;5050625;28;20016;-68
2023/08/07 08:45:38;;;;;;;9.95;2.90;;;;;;;;;;5051369;28;20724;-68
2023/08/07 08:48:05;;;;;;;8.73;3.25;;;;;;;;;;5053073;28;20123;-67
2023/08/07 08:50:32;;;;;;;12.70;2.25;;;;;;;;;;5033023;28;20948;-68
2023/08/07 08:52:59;;;;;;;9.57;2.13;;;;;;;;;;5053183;28;20101;-67
2023/08/07 08:55:26;;;;;;;8.13;2.75;;;;;;;;;;5051893;28;20118;-67
2023/08/07 08:57:53;;;;;;;12.00;2.28;;;;;;;;;;5051766;28;20147;-67
2023/08/07 09:00:21;;;;;;;15.25;2.53;;;;;;;;;;5051224;28;20045;-67
2023/08/07 09:02:48;;;;;;;16.77;2.85;;;;;;;;;;5051364;28;20159;-67
2023/08/07 09:05:18;;;;;;;10.95;2.42;;;;;;;;;;5049722;28;20047;-67
2023/08/07 09:07:46;;;;;;;8.07;2.33;;;;;;;;;;5030801;28;20457;-67
2023/08/07 09:10:13;;;;;;;8.70;2.50;;;;;;;;;;5049393;28;20023;-67
2023/08/07 09:12:43;;;;;;;13.43;2.72;;;;;;;;;;5051615;28;20044;-67
2023/08/07 09:15:10;;;;;;;10.20;2.63;;;;;;;;;;5050312;28;20040;-67
2023/08/07 09:17:39;;;;;;;10.75;3.10;;;;;;;;;;5050596;28;20036;-67
2023/08/07 09:20:08;;;;;;;5.50;2.00;;;;;;;;;;5050275;28;20042;-67
2023/08/07 09:22:34;;;;;;;12.88;2.75;;;;;;;;;;5051935;28;20016;-67
2023/08/07 09:25:00;;;;;;;8.60;2.33;;;;;;;;;;5032954;28;20040;-67
2023/08/07 09:27:29;;;;;;;7.88;2.33;;;;;;;;;;5052227;28;20028;-67
2023/08/07 09:29:56;;;;;;;7.20;1.98;;;;;;;;;;5050044;28;20634;-67
2023/08/07 09:32:23;;;;;;;11.07;2.53;;;;;;;;;;5051195;28;20025;-67
2023/08/07 09:34:50;;;;;;;11.20;2.47;;;;;;;;;;5049901;28;20040;-67
2023/08/07 09:37:16;;;;;;;12.90;2.33;;;;;;;;;;5049490;28;21498;-67
2023/08/07 09:39:42;;;;;;;9.55;2.78;;;;;;;;;;5050394;28;20102;-67
2023/08/07 09:42:15;;;;;;;10.88;2.88;;;;;;;;;;5050152;28;20177;-67
2023/08/07 09:44:42;;;;;;;7.20;2.08;;;;;;;;;;5050950;28;20141;-68
2023/08/07 09:47:14;;;;;;;6.53;1.85;;;;;;;;;;5050642;28;20038;-67
2023/08/07 09:49:41;;;;;;;13.30;2.95;;;;;;;;;;5051171;28;20028;-67
2023/08/07 09:52:08;;;;;;;10.00;2.28;;;;;;;;;;5051710;28;20940;-67
2023/08/07 09:54:34;;;;;;;10.40;2.92;;;;;;;;;;5051513;28;20054;-67
2023/08/07 09:57:01;;;;;;;7.88;2.30;;;;;;;;;;5051787;28;20032;-68
2023/08/07 09:59:28;;;;;;;8.85;2.15;;;;;;;;;;5050010;28;20039;-67
2023/08/07 10:01:55;;;;;;;11.25;2.70;;;;;;;;;;5052553;28;20020;-67
2023/08/07 10:04:22;;;;;;;10.80;2.13;;;;;;;;;;5051789;28;21914;-67
2023/08/07 10:06:48;;;;;;;7.32;2.30;;;;;;;;;;5051058;28;20058;-68
2023/08/07 10:09:14;;;;;;;11.88;2.72;;;;;;;;;;5050049;28;20040;-67
2023/08/07 10:11:41;;;;;;;11.10;2.75;;;;;;;;;;5051522;28;21757;-67
2023/08/07 10:14:09;;;;;;;9.43;2.67;;;;;;;;;;5052099;28;20487;-67
2023/08/07 10:16:39;;;;;;;6.10;2.17;;;;;;;;;;5051486;28;20128;-67
2023/08/07 10:19:09;;;;;;;11.68;3.00;;;;;;;;;;5051116;28;20669;-67
2023/08/07 10:21:42;;;;;;;9.27;2.35;;;;;;;;;;5050674;28;20994;-67
2023/08/07 10:24:08;;;;;;;11.82;3.55;;;;;;;;;;5052158;28;20020;-67
2023/08/07 10:26:36;;;;;;;11.68;2.50;;;;;;;;;;5050610;28;20043;-67
2023/08/07 10:29:07;;;;;;;9.68;2.58;;;;;;;;;;5050080;28;20044;-68
2023/08/07 10:31:34;;;;;;;13.05;3.15;;;;;;;;;;5052105;28;20074;-68
2023/08/07 10:34:00;;;;;;;10.80;2.97;;;;;;;;;;5050656;28;20021;-68
2023/08/07 10:36:34;;;;;;;10.50;2.50;;;;;;;;;;5052046;28;20055;-68
2023/08/07 10:39:07;;;;;;;10.27;2.65;;;;;;;;;;5050673;28;20031;-68
2023/08/07 10:41:38;;;;;;;8.85;2.45;;;;;;;;;;5051459;28;20036;-68
2023/08/07 10:44:04;;;;;;;8.70;2.42;;;;;;;;;;5050895;28;20086;-67
2023/08/07 10:46:47;;;;;;;10.40;2.50;;;;;;;;;;5050204;28;20444;-68
2023/08/07 10:49:31;;;;;;;6.38;1.75;;;;;;;;;;5051137;28;20028;-68
2023/08/07 10:51:57;;;;;;;4.95;1.35;;;;;;;;;;5050956;28;20033;-68
2023/08/07 10:54:24;;;;;;;8.05;1.75;;;;;;;;;;5033097;28;20561;-68
2023/08/07 10:56:54;;;;;;;7.07;1.77;;;;;;;;;;5048982;28;20039;-69
2023/08/07 10:59:20;;;;;;;8.25;1.70;;;;;;;;;;5050398;28;20511;-68
2023/08/07 11:01:51;;;;;;;9.55;1.98;;;;;;;;;;5050720;28;20040;-68
2023/08/07 11:04:17;;;;;;;7.60;1.70;;;;;;;;;;5050841;28;20028;-68
2023/08/07 11:06:47;;;;;;;6.22;1.60;;;;;;;;;;5050030;28;20115;-68
2023/08/07 11:09:13;;;;;;;10.95;2.08;;;;;;;;;;5050951;28;20032;-68
2023/08/07 11:11:40;;;;;;;6.78;1.88;;;;;;;;;;5050106;28;20058;-68
2023/08/07 11:14:13;;;;;;;7.50;2.10;;;;;;;;;;5050701;28;20028;-68
2023/08/07 11:16:39;;;;;;;6.80;1.92;;;;;;;;;;5050274;28;20464;-68
2023/08/07 11:19:06;;;;;;;9.13;2.28;;;;;;;;;;5050444;28;20066;-68
2023/08/07 11:21:33;;;;;;;7.70;2.55;;;;;;;;;;5051339;28;20035;-68
2023/08/07 11:23:59;;;;;;;9.32;2.50;;;;;;;;;;5053771;28;20039;-68
2023/08/07 11:26:27;;;;;;;7.43;2.15;;;;;;;;;;5054721;28;20039;-68
2023/08/07 11:28:53;;;;;;;8.73;2.05;;;;;;;;;;5052757;28;20028;-68
2023/08/07 11:31:20;;;;;;;12.48;2.58;;;;;;;;;;5054144;28;20036;-68
2023/08/07 11:33:46;;;;;;;10.88;2.33;;;;;;;;;;5054184;28;20028;-68
2023/08/07 11:36:13;;;;;;;12.38;2.13;;;;;;;;;;5054500;28;20032;-68
2023/08/07 11:38:40;;;;;;;12.57;2.95;;;;;;;;;;5035779;28;20066;-68
2023/08/07 11:41:07;;;;;;;6.28;1.83;;;;;;;;;;5054796;28;20024;-68
2023/08/07 11:43:34;;;;;;;8.05;2.22;;;;;;;;;;5054150;28;20757;-68
2023/08/07 11:46:04;;;;;;;9.38;1.85;;;;;;;;;;5054216;28;20361;-68
2023/08/07 11:48:31;;;;;;;6.70;1.70;;;;;;;;;;5053310;28;20044;-68
2023/08/07 11:50:58;;;;;;;6.28;1.80;;;;;;;;;;5036198;28;20540;-68
2023/08/07 11:53:31;;;;;;;7.57;2.38;;;;;;;;;;5054144;28;20032;-68
2023/08/07 11:55:57;;;;;;;;;;;;;;;;;;5054854;28;20555;-68
2023/08/07 11:58:25;;;;;;;9.32;2.35;;;;;;;;;;5053522;28;20053;-68
2023/08/07 12:00:51;;;;;;;7.22;2.40;;;;;;;;;;5052961;28;20051;-68
2023/08/07 12:03:28;;;;;;;11.68;2.60;;;;;;;;;;5053861;28;20036;-68
2023/08/07 12:05:55;;;;;;;7.85;2.25;;;;;;;;;;5034193;28;20630;-68
2023/08/07 12:08:21;;;;;;;9.13;2.20;;;;;;;;;;5052028;28;20032;-68
2023/08/07 12:10:51;;;;;;;5.82;1.88;;;;;;;;;;5052230;28;20113;-68
2023/08/07 12:13:20;;;;;;;9.77;1.50;;;;;;;;;;5053154;28;20496;-67
2023/08/07 12:15:47;;;;;;;8.25;2.38;;;;;;;;;;5053120;28;20313;-67
2023/08/07 12:18:14;;;;;;;5.60;1.77;;;;;;;;;;5051154;28;20044;-67
2023/08/07 12:20:41;;;;;;;8.38;1.70;;;;;;;;;;5034514;28;20094;-67
2023/08/07 12:23:11;;;;;;;6.03;1.85;;;;;;;;;;5054006;28;20020;-67
2023/08/07 12:25:37;;;;;;;7.15;2.05;;;;;;;;;;5053681;28;20141;-67
2023/08/07 12:28:04;;;;;;;8.18;2.15;;;;;;;;;;5053096;28;20032;-67
2023/08/07 12:30:33;;;;;;;8.80;2.63;;;;;;;;;;5052451;28;20047;-68
2023/08/07 12:32:59;;;;;;;8.27;2.58;;;;;;;;;;5052761;28;20032;-67
2023/08/07 12:35:25;;;;;;;8.82;2.55;;;;;;;;;;5051820;28;20036;-68
2023/08/07 12:37:51;;;;;;;11.23;2.50;;;;;;;;;;5051243;28;20044;-67
2023/08/07 12:40:20;;;;;;;8.70;2.20;;;;;;;;;;5034034;28;20040;-68
2023/08/07 12:42:48;;;;;;;9.38;2.00;;;;;;;;;;5051594;28;20037;-67
2023/08/07 12:45:15;;;;;;;7.53;1.88;;;;;;;;;;5051061;28;20474;-67
2023/08/07 12:47:41;;;;;;;6.45;2.00;;;;;;;;;;5051464;28;20124;-68
2023/08/07 12:50:08;;;;;;;9.40;2.55;;;;;;;;;;5053048;28;20051;-68
2023/08/07 12:52:34;;;;;;;6.75;2.00;;;;;;;;;;5052607;28;20148;-68
2023/08/07 12:55:00;;;;;;;8.23;2.10;;;;;;;;;;5052955;28;20090;-68
2023/08/07 12:57:27;;;;;;;10.73;3.05;;;;;;;;;;5052008;28;20036;-68
2023/08/07 12:59:53;;;;;;;7.20;2.10;;;;;;;;;;5051766;28;20025;-68
2023/08/07 13:02:19;;;;;;;11.00;2.60;;;;;;;;;;5051812;28;20028;-68
2023/08/07 13:04:46;;;;;;;7.53;1.92;;;;;;;;;;5052124;28;20028;-68
2023/08/07 13:07:12;;;;;;;8.50;2.60;;;;;;;;;;5052382;28;20076;-68
2023/08/07 13:09:40;;;;;;;9.75;2.83;;;;;;;;;;5052139;28;20086;-68
2023/08/07 13:12:07;;;;;;;8.15;2.33;;;;;;;;;;5053200;28;20054;-69
2023/08/07 13:14:33;;;;;;;7.45;2.20;;;;;;;;;;5051813;28;20036;-69
2023/08/07 13:16:59;;;;;;;9.23;2.65;;;;;;;;;;5051918;28;20075;-68
2023/08/07 13:19:25;;;;;;;8.60;2.95;;;;;;;;;;5051222;28;20029;-68
2023/08/07 13:21:51;;;;;;;11.40;2.45;;;;;;;;;;5033801;28;20032;-68
2023/08/07 13:24:17;;;;;;;7.93;2.40;;;;;;;;;;5052273;28;20028;-68
2023/08/07 13:26:47;;;;;;;10.07;2.75;;;;;;;;;;5050888;28;20068;-68
2023/08/07 13:29:15;;;;;;;9.35;2.45;;;;;;;;;;5051650;28;20040;-68
2023/08/07 13:31:43;;;;;;;8.05;2.60;;;;;;;;;;5052211;28;20620;-68
2023/08/07 13:34:10;;;;;;;9.02;2.92;;;;;;;;;;5052376;28;20032;-68
2023/08/07 13:36:37;;;;;;;8.73;2.95;;;;;;;;;;5051686;28;20030;-68
2023/08/07 13:39:03;;;;;;;10.63;3.03;;;;;;;;;;5050054;28;20035;-68
2023/08/07 13:41:30;;;;;;;9.43;2.60;;;;;;;;;;5051354;28;20106;-67
2023/08/07 13:43:56;;;;;;;10.00;2.42;;;;;;;;;;5051093;28;20396;-68
2023/08/07 13:46:22;;;;;;;8.52;2.85;;;;;;;;;;5052276;28;20212;-68
2023/08/07 13:48:48;;;;;;;7.72;2.45;;;;;;;;;;5051040;28;20051;-68
2023/08/07 13:51:15;;;;;;;9.55;2.47;;;;;;;;;;5051586;28;20119;-68
2023/08/07 13:53:42;;;;;;;10.77;3.53;;;;;;;;;;5051876;28;20039;-68
2023/08/07 13:56:11;;;;;;;8.35;2.00;;;;;;;;;;5050953;28;20043;-68
2023/08/07 13:58:37;;;;;;;7.13;1.95;;;;;;;;;;5051013;28;20433;-68
2023/08/07 14:01:04;;;;;;;11.70;2.80;;;;;;;;;;5050839;28;20045;-68
2023/08/07 14:03:30;;;;;;;9.40;2.55;;;;;;;;;;5033682;28;20044;-68
2023/08/07 14:05:59;;;;;;;8.18;1.98;;;;;;;;;;5051618;28;20049;-68
2023/08/07 14:08:25;;;;;;;10.18;2.40;;;;;;;;;;5050938;28;20028;-69
2023/08/07 14:10:51;;;;;;;8.93;2.58;;;;;;;;;;5051264;28;20033;-69
2023/08/07 14:13:17;;;;;;;5.88;2.03;;;;;;;;;;5051552;28;20384;-69
2023/08/07 14:15:43;;;;;;;6.93;2.25;;;;;;;;;;5051295;28;20028;-68
2023/08/07 14:18:11;;;;;;;8.43;2.45;;;;;;;;;;5050416;28;20071;-68
2023/08/07 14:20:37;;;;;;;8.43;2.10;;;;;;;;;;5035779;28;20044;-68
2023/08/07 14:23:04;;;;;;;7.78;2.38;;;;;;;;;;5032528;28;20043;-68
2023/08/07 14:25:30;;;;;;;5.32;1.98;;;;;;;;;;5033040;28;20964;-69
2023/08/07 14:27:56;;;;;;;8.10;2.20;;;;;;;;;;5033444;28;20036;-69
2023/08/07 14:30:22;;;;;;;6.88;1.95;;;;;;;;;;5051874;28;20083;-69
2023/08/07 14:32:48;;;;;;;7.68;1.83;;;;;;;;;;5050963;28;20034;-70
2023/08/07 14:35:14;;;;;;;6.80;2.13;;;;;;;;;;5050916;28;20115;-69
2023/08/07 14:37:41;;;;;;;7.63;2.40;;;;;;;;;;5051143;28;20047;-69